Time;durP1;ratioP1;P1;durP2;ratioP2;P2;SDS_P1;SDS_P2;PMS_P1;PMS_P2;Temp;Humidity;BMP_temperature;BMP_pressure;BME280_temperature;BME280_humidity;BME280_pressure;Samples;Min_cycle;Max_cycle;Signal;HPM_P1;HPM_P2
2023/03/22 00:00:18;;;;;;;2.70;2.50;;;;;;;;;;6233778;28;20194;-50
2023/03/22 00:03:19;;;;;;;3.97;3.10;;;;;;;;;;6230470;28;20209;-52
2023/03/22 00:06:20;;;;;;;3.80;2.60;;;;;;;;;;6245629;28;20223;-50
2023/03/22 00:09:21;;;;;;;3.03;2.70;;;;;;;;;;6259093;28;20186;-54
2023/03/22 00:12:22;;;;;;;4.97;2.93;;;;;;;;;;6242136;28;20232;-55
2023/03/22 00:15:23;;;;;;;4.70;3.03;;;;;;;;;;6246320;28;20229;-48
2023/03/22 00:18:25;;;;;;;3.10;2.80;;;;;;;;;;6228207;28;20199;-50
2023/03/22 00:21:26;;;;;;;3.40;2.80;;;;;;;;;;6241261;28;20195;-50
2023/03/22 00:24:27;;;;;;;3.17;2.80;;;;;;;;;;6233586;28;20214;-51
2023/03/22 00:27:28;;;;;;;5.10;3.10;;;;;;;;;;6226629;28;20249;-53
2023/03/22 00:30:29;;;;;;;4.23;3.00;;;;;;;;;;6274308;28;20321;-50
2023/03/22 00:33:31;;;;;;;3.20;2.70;;;;;;;;;;6266335;28;20275;-51
2023/03/22 00:36:32;;;;;;;3.13;2.70;;;;;;;;;;6242330;28;20197;-50
2023/03/22 00:39:33;;;;;;;3.10;2.70;;;;;;;;;;6233930;28;20186;-54
2023/03/22 00:42:35;;;;;;;5.27;3.30;;;;;;;;;;6228389;28;20214;-48
2023/03/22 00:45:39;;;;;;;3.33;2.67;;;;;;;;;;6230946;28;20221;-50
2023/03/22 00:48:40;;;;;;;4.37;2.30;;;;;;;;;;6232917;28;20186;-48
2023/03/22 00:51:41;;;;;;;2.60;2.40;;;;;;;;;;6230228;28;20213;-53
2023/03/22 00:54:42;;;;;;;4.13;2.50;;;;;;;;;;6266066;28;20205;-52
2023/03/22 00:57:43;;;;;;;3.87;2.63;;;;;;;;;;6233170;28;20220;-54
2023/03/22 01:00:44;;;;;;;3.87;2.87;;;;;;;;;;6256635;28;20205;-48
2023/03/22 01:03:48;;;;;;;3.03;2.70;;;;;;;;;;6263617;28;20241;-49
2023/03/22 01:06:50;;;;;;;4.30;2.60;;;;;;;;;;6230110;28;20187;-50
2023/03/22 01:09:51;;;;;;;5.67;3.37;;;;;;;;;;6216648;28;20197;-51
2023/03/22 01:12:52;;;;;;;4.90;2.67;;;;;;;;;;6239173;28;20187;-48
2023/03/22 01:15:54;;;;;;;3.53;2.63;;;;;;;;;;6225066;28;20219;-52
2023/03/22 01:18:55;;;;;;;4.23;2.60;;;;;;;;;;6231083;28;20212;-51
2023/03/22 01:21:56;;;;;;;3.73;2.30;;;;;;;;;;6231862;28;20204;-50
2023/03/22 01:24:57;;;;;;;3.00;2.30;;;;;;;;;;6249088;28;20252;-52
2023/03/22 01:28:01;;;;;;;2.97;2.50;;;;;;;;;;6264313;28;20340;-50
2023/03/22 01:31:02;;;;;;;3.77;2.13;;;;;;;;;;6260985;28;20238;-49
2023/03/22 01:34:04;;;;;;;2.50;2.30;;;;;;;;;;6262875;28;20190;-52
2023/03/22 01:37:05;;;;;;;2.87;2.23;;;;;;;;;;6246159;28;20194;-50
2023/03/22 01:40:06;;;;;;;3.63;2.20;;;;;;;;;;6232211;28;20205;-51
2023/03/22 01:43:14;;;;;;;2.83;2.27;;;;;;;;;;6241485;28;20198;-49
2023/03/22 01:46:15;;;;;;;2.93;2.30;;;;;;;;;;6251528;28;20305;-52
2023/03/22 01:49:19;;;;;;;3.60;2.50;;;;;;;;;;6264648;28;20272;-50
2023/03/22 01:52:20;;;;;;;2.40;2.00;;;;;;;;;;6236041;28;20198;-51
2023/03/22 01:55:22;;;;;;;3.57;2.10;;;;;;;;;;6251792;28;20202;-53
2023/03/22 01:58:23;;;;;;;3.60;2.33;;;;;;;;;;6229994;28;20195;-49
2023/03/22 02:01:24;;;;;;;6.37;2.67;;;;;;;;;;6245038;28;20191;-51
2023/03/22 02:04:33;;;;;;;5.07;2.10;;;;;;;;;;6253944;28;20297;-49
2023/03/22 02:07:34;;;;;;;3.70;2.40;;;;;;;;;;6275714;28;20182;-51
2023/03/22 02:10:35;;;;;;;4.73;2.30;;;;;;;;;;6240176;28;20190;-54
2023/03/22 02:13:41;;;;;;;5.23;2.50;;;;;;;;;;6264076;28;20194;-52
2023/03/22 02:16:52;;;;;;;3.80;2.10;;;;;;;;;;6250574;28;20187;-51
2023/03/22 02:20:11;;;;;;;3.87;2.27;;;;;;;;;;6243575;28;20250;-55
2023/03/22 02:23:17;;;;;;;3.00;2.07;;;;;;;;;;6244449;28;20219;-49
2023/03/22 02:26:38;;;;;;;3.20;2.47;;;;;;;;;;6263346;28;20224;-52
2023/03/22 02:29:48;;;;;;;3.37;2.37;;;;;;;;;;6248075;28;20183;-50
2023/03/22 02:32:52;;;;;;;5.83;2.77;;;;;;;;;;6254996;28;20209;-51
2023/03/22 02:36:12;;;;;;;3.20;2.80;;;;;;;;;;6248916;28;20195;-53
2023/03/22 02:39:32;;;;;;;3.00;2.53;;;;;;;;;;6251779;28;20299;-50
2023/03/22 02:42:36;;;;;;;2.30;2.10;;;;;;;;;;6246259;28;20279;-53
2023/03/22 02:45:47;;;;;;;3.27;2.20;;;;;;;;;;6239856;28;20278;-48
2023/03/22 02:48:48;;;;;;;3.50;2.37;;;;;;;;;;6245885;28;20191;-50
2023/03/22 02:51:52;;;;;;;3.27;2.60;;;;;;;;;;6281574;28;20193;-49
2023/03/22 02:55:06;;;;;;;2.77;2.57;;;;;;;;;;6249969;28;20196;-50
2023/03/22 02:58:13;;;;;;;5.03;2.70;;;;;;;;;;6236233;28;20195;-48
2023/03/22 03:01:20;;;;;;;5.00;2.57;;;;;;;;;;6245186;28;20238;-52
2023/03/22 03:04:26;;;;;;;5.40;3.13;;;;;;;;;;6261498;28;20217;-50
2023/03/22 03:07:28;;;;;;;5.60;3.00;;;;;;;;;;6276137;28;20260;-49
2023/03/22 03:10:29;;;;;;;2.90;2.47;;;;;;;;;;6252589;28;20186;-53
2023/03/22 03:13:30;;;;;;;4.57;2.70;;;;;;;;;;6248711;28;20186;-51
2023/03/22 03:16:35;;;;;;;4.17;2.67;;;;;;;;;;6230929;28;20186;-51
2023/03/22 03:19:42;;;;;;;2.83;2.00;;;;;;;;;;6264789;28;20183;-51
2023/03/22 03:22:49;;;;;;;2.50;2.23;;;;;;;;;;6237111;28;20273;-51
2023/03/22 03:25:56;;;;;;;2.87;2.43;;;;;;;;;;6249460;28;20218;-53
2023/03/22 03:29:01;;;;;;;2.87;2.30;;;;;;;;;;6249654;28;20200;-50
2023/03/22 03:32:06;;;;;;;4.30;2.40;;;;;;;;;;6264766;28;20302;-53
2023/03/22 03:35:16;;;;;;;7.07;2.50;;;;;;;;;;6244025;28;20195;-50
2023/03/22 03:38:23;;;;;;;3.07;2.30;;;;;;;;;;6247765;28;20214;-52
2023/03/22 03:41:25;;;;;;;4.77;2.80;;;;;;;;;;6248513;28;20187;-53
2023/03/22 03:44:27;;;;;;;4.37;2.60;;;;;;;;;;6246322;28;20210;-53
2023/03/22 03:47:29;;;;;;;6.27;2.57;;;;;;;;;;6240666;28;20187;-51
2023/03/22 03:50:30;;;;;;;2.87;2.63;;;;;;;;;;6265553;28;20197;-49
2023/03/22 03:53:32;;;;;;;2.90;2.60;;;;;;;;;;6247613;28;20186;-54
2023/03/22 03:56:33;;;;;;;2.60;2.40;;;;;;;;;;6247630;28;20195;-53
2023/03/22 03:59:34;;;;;;;2.60;2.40;;;;;;;;;;6226413;28;20290;-51
2023/03/22 04:02:35;;;;;;;2.57;2.37;;;;;;;;;;6247930;28;20248;-48
2023/03/22 04:05:36;;;;;;;5.40;2.33;;;;;;;;;;6236941;28;20213;-51
2023/03/22 04:08:37;;;;;;;3.87;2.73;;;;;;;;;;6246342;28;20187;-54
2023/03/22 04:11:38;;;;;;;3.13;2.57;;;;;;;;;;6231929;28;20231;-53
2023/03/22 04:14:40;;;;;;;3.53;2.63;;;;;;;;;;6227531;28;20253;-50
2023/03/22 04:17:41;;;;;;;5.17;2.67;;;;;;;;;;6233999;28;20229;-50
2023/03/22 04:20:45;;;;;;;2.80;2.57;;;;;;;;;;6250808;28;20190;-54
2023/03/22 04:23:46;;;;;;;3.07;2.77;;;;;;;;;;6255023;28;20226;-53
2023/03/22 04:26:47;;;;;;;2.60;2.33;;;;;;;;;;6228035;28;20248;-51
2023/03/22 04:29:49;;;;;;;2.67;2.43;;;;;;;;;;6233599;28;20190;-53
2023/03/22 04:32:50;;;;;;;3.30;2.60;;;;;;;;;;6228309;28;20249;-50
2023/03/22 04:35:55;;;;;;;2.67;2.40;;;;;;;;;;6265087;28;20201;-54
2023/03/22 04:38:57;;;;;;;4.57;2.23;;;;;;;;;;6256537;28;20203;-52
2023/03/22 04:41:58;;;;;;;5.30;2.50;;;;;;;;;;6248001;28;20190;-52
2023/03/22 04:44:59;;;;;;;3.17;2.60;;;;;;;;;;6226015;28;20244;-53
2023/03/22 04:48:00;;;;;;;4.83;2.37;;;;;;;;;;6221187;28;20201;-55
2023/03/22 04:51:02;;;;;;;3.97;2.40;;;;;;;;;;6249287;28;20205;-52
2023/03/22 04:54:04;;;;;;;3.37;2.40;;;;;;;;;;6230088;28;20203;-52
2023/03/22 04:57:05;;;;;;;6.40;2.53;;;;;;;;;;6224633;28;20195;-54
2023/03/22 05:00:07;;;;;;;3.70;2.90;;;;;;;;;;6229119;28;20222;-55
2023/03/22 05:03:08;;;;;;;5.57;2.60;;;;;;;;;;6252370;28;20199;-52
2023/03/22 05:06:09;;;;;;;3.33;2.97;;;;;;;;;;6242460;28;20249;-47
2023/03/22 05:09:10;;;;;;;3.07;2.67;;;;;;;;;;6229018;28;20289;-51
2023/03/22 05:12:12;;;;;;;5.80;2.40;;;;;;;;;;6244345;28;20190;-48
2023/03/22 05:15:13;;;;;;;3.30;2.87;;;;;;;;;;6241808;28;20218;-52
2023/03/22 05:18:25;;;;;;;3.83;2.57;;;;;;;;;;6276604;28;20194;-48
2023/03/22 05:21:26;;;;;;;2.73;2.53;;;;;;;;;;6248840;28;20219;-47
2023/03/22 05:24:29;;;;;;;4.57;2.90;;;;;;;;;;6248435;28;20222;-51
2023/03/22 05:27:30;;;;;;;4.37;3.00;;;;;;;;;;6245718;28;20190;-48
2023/03/22 05:30:31;;;;;;;4.17;2.77;;;;;;;;;;6259445;28;20242;-50
2023/03/22 05:33:33;;;;;;;3.73;2.90;;;;;;;;;;6237684;28;20226;-50
2023/03/22 05:36:35;;;;;;;4.00;3.20;;;;;;;;;;6245303;28;20204;-49
2023/03/22 05:39:36;;;;;;;6.80;3.00;;;;;;;;;;6218352;28;20187;-48
2023/03/22 05:42:37;;;;;;;4.17;2.73;;;;;;;;;;6223512;28;20195;-49
2023/03/22 05:45:38;;;;;;;4.73;2.60;;;;;;;;;;6248534;28;20222;-48
2023/03/22 05:48:40;;;;;;;3.53;2.87;;;;;;;;;;6247060;28;20222;-51
2023/03/22 05:51:41;;;;;;;3.60;3.00;;;;;;;;;;6247040;28;20186;-49
2023/03/22 05:54:42;;;;;;;4.00;3.07;;;;;;;;;;6257182;28;20198;-52
2023/03/22 05:57:45;;;;;;;4.97;3.80;;;;;;;;;;6227126;28;20265;-49
2023/03/22 06:00:48;;;;;;;7.40;4.00;;;;;;;;;;6231349;28;20202;-50
2023/03/22 06:03:49;;;;;;;5.47;3.57;;;;;;;;;;6224216;28;20206;-52
2023/03/22 06:06:52;;;;;;;4.33;3.30;;;;;;;;;;6246561;28;20569;-51
2023/03/22 06:09:53;;;;;;;6.97;3.53;;;;;;;;;;6260021;28;20186;-52
2023/03/22 06:12:54;;;;;;;3.37;3.07;;;;;;;;;;6227375;28;20186;-48
2023/03/22 06:15:58;;;;;;;4.10;3.17;;;;;;;;;;6224791;28;20241;-48
2023/03/22 06:18:59;;;;;;;5.57;2.73;;;;;;;;;;6273606;28;20202;-50
2023/03/22 06:22:00;;;;;;;4.30;3.67;;;;;;;;;;6227092;28;20204;-49
2023/03/22 06:25:01;;;;;;;4.53;3.43;;;;;;;;;;6227697;28;20237;-49
2023/03/22 06:28:03;;;;;;;4.20;3.40;;;;;;;;;;6235318;28;20190;-49
2023/03/22 06:31:08;;;;;;;8.00;3.63;;;;;;;;;;6231516;28;20265;-50
2023/03/22 06:34:09;;;;;;;4.93;3.50;;;;;;;;;;6248982;28;20190;-50
2023/03/22 06:37:10;;;;;;;4.07;3.00;;;;;;;;;;6265721;28;20191;-52
2023/03/22 06:40:11;;;;;;;6.27;3.57;;;;;;;;;;6226047;28;20202;-52
2023/03/22 06:43:12;;;;;;;6.73;3.43;;;;;;;;;;6252814;28;20199;-48
2023/03/22 06:46:14;;;;;;;5.10;3.27;;;;;;;;;;6216577;28;20210;-50
2023/03/22 06:49:15;;;;;;;5.73;2.97;;;;;;;;;;6239275;28;20224;-53
2023/03/22 06:52:16;;;;;;;6.50;3.17;;;;;;;;;;6249040;28;20222;-51
2023/03/22 06:55:17;;;;;;;5.27;3.40;;;;;;;;;;6251763;28;20192;-48
2023/03/22 06:58:18;;;;;;;6.93;3.50;;;;;;;;;;6228557;28;20232;-52
2023/03/22 07:01:20;;;;;;;6.93;4.27;;;;;;;;;;6260196;28;20198;-52
2023/03/22 07:04:21;;;;;;;8.70;3.97;;;;;;;;;;6232139;28;20221;-52
2023/03/22 07:07:22;;;;;;;4.27;3.30;;;;;;;;;;6250762;28;20321;-49
2023/03/22 07:10:23;;;;;;;6.03;3.70;;;;;;;;;;6219681;28;20197;-49
2023/03/22 07:13:24;;;;;;;4.87;3.87;;;;;;;;;;6224163;28;20198;-48
2023/03/22 07:16:25;;;;;;;5.33;3.33;;;;;;;;;;6223001;28;20209;-48
2023/03/22 07:19:26;;;;;;;5.07;3.73;;;;;;;;;;6266805;28;20186;-48
2023/03/22 07:22:27;;;;;;;7.33;4.10;;;;;;;;;;6225855;28;20190;-51
2023/03/22 07:25:28;;;;;;;3.90;3.20;;;;;;;;;;6225319;28;20230;-50
2023/03/22 07:28:29;;;;;;;6.07;3.87;;;;;;;;;;6210302;28;20248;-50
2023/03/22 07:31:34;;;;;;;6.20;4.20;;;;;;;;;;6258027;28;20260;-53
2023/03/22 07:34:35;;;;;;;5.27;3.40;;;;;;;;;;6250893;28;20197;-51
2023/03/22 07:37:36;;;;;;;5.63;3.60;;;;;;;;;;6229067;28;20198;-49
2023/03/22 07:40:37;;;;;;;6.00;4.03;;;;;;;;;;6226135;28;20202;-51
2023/03/22 07:43:38;;;;;;;6.17;4.17;;;;;;;;;;6224819;28;20214;-51
2023/03/22 07:46:39;;;;;;;7.13;3.80;;;;;;;;;;6233171;28;20214;-53
2023/03/22 07:49:40;;;;;;;6.00;3.73;;;;;;;;;;6211779;28;20250;-51
2023/03/22 07:52:42;;;;;;;7.87;3.93;;;;;;;;;;6225992;28;20419;-51
2023/03/22 07:55:43;;;;;;;7.83;3.90;;;;;;;;;;6251766;28;20200;-50
2023/03/22 07:58:44;;;;;;;3.70;3.03;;;;;;;;;;6222984;28;20198;-53
2023/03/22 08:01:45;;;;;;;6.37;3.67;;;;;;;;;;6223342;28;20203;-52
2023/03/22 08:04:47;;;;;;;7.30;3.60;;;;;;;;;;6229625;28;20210;-47
2023/03/22 08:07:50;;;;;;;7.17;3.60;;;;;;;;;;6226187;28;20222;-49
2023/03/22 08:10:51;;;;;;;8.60;3.70;;;;;;;;;;6230465;28;20191;-51
2023/03/22 08:13:53;;;;;;;4.70;3.60;;;;;;;;;;6220217;28;20208;-49
2023/03/22 08:16:54;;;;;;;6.53;3.80;;;;;;;;;;6263759;28;20285;-49
2023/03/22 08:19:55;;;;;;;8.07;3.80;;;;;;;;;;6265530;28;20198;-50
2023/03/22 08:22:56;;;;;;;5.77;3.40;;;;;;;;;;6247336;28;20204;-49
2023/03/22 08:25:57;;;;;;;6.33;3.53;;;;;;;;;;6221496;28;20225;-51
2023/03/22 08:28:59;;;;;;;7.47;4.07;;;;;;;;;;6230715;28;20195;-48
2023/03/22 08:32:01;;;;;;;6.83;4.17;;;;;;;;;;6224441;28;20242;-48
2023/03/22 08:35:04;;;;;;;8.83;3.90;;;;;;;;;;6255841;28;20195;-52
2023/03/22 08:38:05;;;;;;;5.40;3.40;;;;;;;;;;6244835;28;20194;-50
2023/03/22 08:41:06;;;;;;;7.27;3.90;;;;;;;;;;6238190;28;20222;-50
2023/03/22 08:44:07;;;;;;;6.03;4.13;;;;;;;;;;6251221;28;20207;-50
2023/03/22 08:47:08;;;;;;;6.07;3.80;;;;;;;;;;6226102;28;20215;-52
2023/03/22 08:50:10;;;;;;;8.03;3.93;;;;;;;;;;6229325;28;20190;-51
2023/03/22 08:53:12;;;;;;;6.67;3.70;;;;;;;;;;6273948;28;20178;-50
2023/03/22 08:56:15;;;;;;;5.30;3.50;;;;;;;;;;6252166;28;20191;-49
2023/03/22 08:59:16;;;;;;;8.37;4.00;;;;;;;;;;6242883;28;20198;-49
2023/03/22 09:02:17;;;;;;;4.63;3.47;;;;;;;;;;6246412;28;20204;-49
2023/03/22 09:05:18;;;;;;;5.47;3.37;;;;;;;;;;6253452;28;20219;-51
2023/03/22 09:08:19;;;;;;;8.33;3.60;;;;;;;;;;6225224;28;20201;-51
2023/03/22 09:11:20;;;;;;;5.63;3.43;;;;;;;;;;6234234;28;20184;-50
2023/03/22 09:14:22;;;;;;;5.07;3.40;;;;;;;;;;6244558;28;20190;-54
2023/03/22 09:17:23;;;;;;;5.53;3.30;;;;;;;;;;6239527;28;20195;-49
2023/03/22 09:20:24;;;;;;;6.97;4.20;;;;;;;;;;6241597;28;20189;-51
2023/03/22 09:23:26;;;;;;;6.93;3.50;;;;;;;;;;6231241;28;20199;-49
2023/03/22 09:26:27;;;;;;;6.23;3.40;;;;;;;;;;6242033;28;20214;-48
2023/03/22 09:29:28;;;;;;;4.47;2.70;;;;;;;;;;6232744;28;20222;-51
2023/03/22 09:32:29;;;;;;;4.07;3.33;;;;;;;;;;6254895;28;20237;-48
2023/03/22 09:35:30;;;;;;;5.27;2.73;;;;;;;;;;6210710;28;20256;-50
2023/03/22 09:38:32;;;;;;;3.60;2.47;;;;;;;;;;6220933;28;20199;-48
2023/03/22 09:41:48;;;;;;;4.07;2.70;;;;;;;;;;6227602;28;20220;-48
2023/03/22 09:44:50;;;;;;;4.60;2.60;;;;;;;;;;6243701;28;20259;-48
2023/03/22 09:47:53;;;;;;;4.77;3.00;;;;;;;;;;6255498;28;20191;-48
2023/03/22 09:50:55;;;;;;;3.47;3.17;;;;;;;;;;6234064;28;20218;-48
2023/03/22 09:53:56;;;;;;;4.03;3.33;;;;;;;;;;6237980;28;20192;-50
2023/03/22 09:56:57;;;;;;;5.43;3.43;;;;;;;;;;6242695;28;20192;-48
2023/03/22 10:00:15;;;;;;;4.57;3.27;;;;;;;;;;6244713;28;20262;-48
2023/03/22 10:03:20;;;;;;;5.73;4.37;;;;;;;;;;6248711;28;20186;-49
2023/03/22 10:06:22;;;;;;;7.07;5.37;;;;;;;;;;6245933;28;20282;-52
2023/03/22 10:09:29;;;;;;;8.83;5.70;;;;;;;;;;6241748;28;20257;-49
2023/03/22 10:13:00;;;;;;;8.20;6.03;;;;;;;;;;6242164;28;20206;-51
2023/03/22 10:16:06;;;;;;;7.10;6.07;;;;;;;;;;6229212;28;20211;-48
2023/03/22 10:19:16;;;;;;;6.30;5.70;;;;;;;;;;6245484;28;20274;-49
2023/03/22 10:22:19;;;;;;;7.87;6.10;;;;;;;;;;6241121;28;20192;-48
2023/03/22 10:25:23;;;;;;;6.77;6.10;;;;;;;;;;6228119;28;20261;-48
2023/03/22 10:28:28;;;;;;;10.37;7.17;;;;;;;;;;6232073;28;20187;-49
2023/03/22 10:31:30;;;;;;;5.87;5.27;;;;;;;;;;6244306;28;20239;-50
2023/03/22 10:34:31;;;;;;;6.90;4.90;;;;;;;;;;6227127;28;20199;-50
2023/03/22 10:37:33;;;;;;;9.70;6.37;;;;;;;;;;6218874;28;20192;-51
2023/03/22 10:40:36;;;;;;;6.80;6.10;;;;;;;;;;6240732;28;20200;-49
2023/03/22 10:43:38;;;;;;;8.03;5.67;;;;;;;;;;6237531;28;20191;-50
2023/03/22 10:46:40;;;;;;;11.23;6.13;;;;;;;;;;6236311;28;20264;-51
2023/03/22 10:49:47;;;;;;;8.87;6.00;;;;;;;;;;6220664;28;20192;-51
2023/03/22 10:52:56;;;;;;;6.60;5.60;;;;;;;;;;6249765;28;20198;-48
2023/03/22 10:55:57;;;;;;;6.63;6.03;;;;;;;;;;6243542;28;20218;-50
2023/03/22 10:58:58;;;;;;;6.37;5.70;;;;;;;;;;6248340;28;20291;-50
2023/03/22 11:02:00;;;;;;;7.30;4.90;;;;;;;;;;6258077;28;20209;-49
2023/03/22 11:05:03;;;;;;;10.40;6.23;;;;;;;;;;6226991;28;20353;-47
2023/03/22 11:08:05;;;;;;;5.53;5.03;;;;;;;;;;6238285;28;20247;-49
2023/03/22 11:11:07;;;;;;;10.87;5.07;;;;;;;;;;6235488;28;20302;-50
2023/03/22 11:14:28;;;;;;;6.37;5.37;;;;;;;;;;6247892;28;20210;-47
2023/03/22 11:17:30;;;;;;;7.13;5.13;;;;;;;;;;6237318;28;20202;-47
2023/03/22 11:20:32;;;;;;;5.13;4.60;;;;;;;;;;6230051;28;20207;-53
2023/03/22 11:23:34;;;;;;;7.03;4.33;;;;;;;;;;6241450;28;20196;-48
2023/03/22 11:26:36;;;;;;;5.67;4.63;;;;;;;;;;6248074;28;20300;-49
2023/03/22 11:29:42;;;;;;;6.30;4.57;;;;;;;;;;6247173;28;20219;-52
2023/03/22 11:32:43;;;;;;;5.37;4.87;;;;;;;;;;6247528;28;20192;-47
2023/03/22 11:35:53;;;;;;;4.97;4.20;;;;;;;;;;6212750;28;20191;-52
2023/03/22 11:38:59;;;;;;;5.53;4.37;;;;;;;;;;6239982;28;20326;-49
2023/03/22 11:42:02;;;;;;;8.83;4.37;;;;;;;;;;6242376;28;20282;-50
2023/03/22 11:45:04;;;;;;;7.90;4.93;;;;;;;;;;6249535;28;20223;-47
2023/03/22 11:48:06;;;;;;;8.93;4.47;;;;;;;;;;6230827;28;20197;-56
2023/03/22 11:51:10;;;;;;;5.67;4.37;;;;;;;;;;6247669;28;20197;-56
2023/03/22 11:54:26;;;;;;;7.50;4.33;;;;;;;;;;6247699;28;20281;-57
2023/03/22 11:57:29;;;;;;;5.23;4.00;;;;;;;;;;6247719;28;20191;-53
2023/03/22 12:00:32;;;;;;;4.20;3.47;;;23.30;28.40;;;;;;6234475;28;20190;-53
2023/03/22 12:03:37;;;;;;;5.37;4.63;;;20.80;35.40;;;;;;6248210;28;20220;-54
2023/03/22 12:06:39;;;;;;;4.30;3.87;;;20.70;35.10;;;;;;6242831;28;20251;-53
2023/03/22 12:09:58;;;;;;;6.43;4.50;;;20.90;35.60;;;;;;6232084;28;20277;-51
2023/03/22 12:13:03;;;;;;;5.93;4.57;;;21.10;35.50;;;;;;6265044;28;20191;-50
2023/03/22 12:16:06;;;;;;;4.00;3.60;;;21.50;34.60;;;;;;6245100;28;20207;-52
2023/03/22 12:19:12;;;;;;;3.87;3.10;;;21.70;34.50;;;;;;6231815;28;20230;-50
2023/03/22 12:22:18;;;;;;;4.33;3.87;;;21.70;34.50;;;;;;6249715;28;20186;-47
2023/03/22 12:25:29;;;;;;;3.87;3.47;;;21.90;32.50;;;;;;6258919;28;20210;-53
2023/03/22 12:28:40;;;;;;;4.87;3.70;;;22.00;33.10;;;;;;6239565;28;20191;-51
2023/03/22 12:32:11;;;;;;;3.83;3.30;;;22.10;33.30;;;;;;6277398;28;20276;-50
2023/03/22 12:35:20;;;;;;;4.00;3.20;;;22.30;33.10;;;;;;6226282;28;20206;-54
2023/03/22 12:38:39;;;;;;;6.30;3.43;;;22.20;32.20;;;;;;6247901;28;20191;-53
2023/03/22 12:41:45;;;;;;;3.40;2.80;;;22.40;31.90;;;;;;6251944;28;20202;-48
2023/03/22 12:44:49;;;;;;;4.07;3.00;;;22.80;32.60;;;;;;6245431;28;20227;-50
2023/03/22 12:48:16;;;;;;;5.33;2.93;;;;;;;;;;6245601;28;20198;-52
2023/03/22 12:51:17;;;;;;;5.00;2.40;;;;;;;;;;6272926;28;20206;-53
2023/03/22 12:54:19;;;;;;;2.33;1.90;;;;;;;;;;6253495;28;20236;-53
2023/03/22 12:57:21;;;;;;;3.20;2.03;;;;;;;;;;6245903;28;20191;-51
2023/03/22 13:00:27;;;;;;;3.60;2.00;;;;;;;;;;6248275;28;20190;-52
2023/03/22 13:03:39;;;;;;;3.17;2.17;;;;;;;;;;6245447;28;20183;-50
2023/03/22 13:06:45;;;;;;;2.70;2.10;;;23.40;31.70;;;;;;6244023;28;20284;-52
2023/03/22 13:09:50;;;;;;;3.57;2.73;;;;;;;;;;6244964;28;20202;-47
2023/03/22 13:13:15;;;;;;;2.60;2.40;;;32.80;22.50;;;;;;6252899;28;20191;-50
2023/03/22 13:16:21;;;;;;;1.70;1.57;;;;;;;;;;6241811;28;20187;-52
2023/03/22 13:19:36;;;;;;;4.10;1.77;;;33.20;21.50;;;;;;6244457;28;20201;-53
2023/03/22 13:22:36;;;;;;;1.20;1.10;;;34.20;20.60;;;;;;6222053;28;20199;-52
2023/03/22 13:25:39;;;;;;;1.33;1.23;;;;;;;;;;6229606;28;20214;-48
2023/03/22 13:28:40;;;;;;;1.60;1.20;;;;;;;;;;6238896;28;20187;-48
2023/03/22 13:31:46;;;;;;;2.85;1.70;;;;;;;;;;6260275;28;20240;-49
2023/03/22 13:34:51;;;;;;;1.67;1.57;;;36.70;19.50;;;;;;6242213;28;20222;-50
2023/03/22 13:37:53;;;;;;;3.90;1.53;;;;;;;;;;6255628;28;20312;-48
2023/03/22 13:41:31;;;;;;;2.73;1.40;;;36.90;19.20;;;;;;6221718;28;20218;-49
2023/03/22 13:44:42;;;;;;;4.00;1.63;;;36.90;18.50;;;;;;6239474;28;20224;-51
2023/03/22 13:47:45;;;;;;;2.05;1.48;;;37.20;18.10;;;;;;6262271;28;20195;-52
2023/03/22 13:50:46;;;;;;;3.05;1.30;;;37.50;18.00;;;;;;6261704;28;20195;-53
2023/03/22 13:54:06;;;;;;;2.10;1.20;;;38.50;18.30;;;;;;6215977;28;20260;-48
2023/03/22 13:57:36;;;;;;;2.25;1.10;;;38.70;17.50;;;;;;6244423;28;20180;-51
2023/03/22 14:00:41;;;;;;;1.48;1.38;;;39.10;17.70;;;;;;6243828;28;20197;-49
2023/03/22 14:03:45;;;;;;;2.03;1.35;;;39.00;17.10;;;;;;6236757;28;20187;-47
2023/03/22 14:06:54;;;;;;;1.25;1.15;;;38.90;18.00;;;;;;6240971;28;20213;-52
2023/03/22 14:10:00;;;;;;;2.08;1.52;;;40.00;16.90;;;;;;6235389;28;20194;-52
2023/03/22 14:13:25;;;;;;;1.80;1.17;;;39.80;16.70;;;;;;6238519;28;20222;-49
2023/03/22 14:16:40;;;;;;;1.58;1.25;;;41.00;16.80;;;;;;6245347;28;20197;-49
2023/03/22 14:19:42;;;;;;;1.58;1.40;;;;;;;;;;6231898;28;20191;-52
2023/03/22 14:23:03;;;;;;;1.85;1.48;;;;;;;;;;6227894;28;20197;-50
2023/03/22 14:26:06;;;;;;;2.13;1.52;;;;;;;;;;6241996;28;20269;-52
2023/03/22 14:29:09;;;;;;;1.20;1.10;;;;;;;;;;6265426;28;20197;-52
2023/03/22 14:32:16;;;;;;;2.00;1.20;;;;;;;;;;6248839;28;20234;-50
2023/03/22 14:35:47;;;;;;;1.15;0.95;;;;;;;;;;6246926;28;20186;-49
2023/03/22 14:38:51;;;;;;;1.65;1.15;;;;;;;;;;6243045;28;20187;-52
2023/03/22 14:42:04;;;;;;;1.10;1.00;;;37.80;18.10;;;;;;6249425;28;20245;-54
2023/03/22 14:45:13;;;;;;;2.97;1.20;;;36.90;18.20;;;;;;6237115;28;20207;-51
2023/03/22 14:48:19;;;;;;;2.88;1.58;;;37.60;18.30;;;;;;6247928;28;20211;-49
2023/03/22 14:51:33;;;;;;;2.33;1.60;;;38.50;17.50;;;;;;6240354;28;20221;-52
2023/03/22 14:54:38;;;;;;;1.50;1.40;;;;;;;;;;6247748;28;20344;-53
2023/03/22 14:57:40;;;;;;;1.23;1.13;;;;;;;;;;6231188;28;20186;-53
2023/03/22 15:00:42;;;;;;;2.42;1.33;;;;;;;;;;6256406;28;20203;-53
2023/03/22 15:03:47;;;;;;;2.03;1.40;;;;;;;;;;6265354;28;20216;-54
2023/03/22 15:06:55;;;;;;;2.08;1.45;;;38.60;17.50;;;;;;6250708;28;20245;-53
2023/03/22 15:10:11;;;;;;;1.30;1.20;;;39.30;17.30;;;;;;6250134;28;20274;-54
2023/03/22 15:13:12;;;;;;;2.90;1.50;;;;;;;;;;6237286;28;20183;-51
2023/03/22 15:16:18;;;;;;;2.88;1.50;;;;;;;;;;6243174;28;20186;-52
2023/03/22 15:19:21;;;;;;;1.50;1.40;;;;;;;;;;6251890;28;20194;-51
2023/03/22 15:22:22;;;;;;;1.73;1.23;;;;;;;;;;6246086;28;20187;-53
2023/03/22 15:25:31;;;;;;;3.13;1.27;;;;;;;;;;6282562;28;20212;-53
2023/03/22 15:28:35;;;;;;;1.60;1.50;;;;;;;;;;6279496;28;20183;-49
2023/03/22 15:31:44;;;;;;;2.33;1.20;;;;;;;;;;6239346;28;20233;-48
2023/03/22 15:34:46;;;;;;;2.10;1.50;;;;;;;;;;6250996;28;20193;-50
2023/03/22 15:37:49;;;;;;;2.50;1.50;;;;;;;;;;6229837;28;20206;-52
2023/03/22 15:40:50;;;;;;;1.57;1.47;;;;;;;;;;6248544;28;20285;-53
2023/03/22 15:44:04;;;;;;;4.80;1.87;;;;;;;;;;6250691;28;20235;-48
2023/03/22 15:47:05;;;;;;;1.83;1.50;;;;;;;;;;6244086;28;20219;-50
2023/03/22 15:50:07;;;;;;;2.13;1.93;;;;;;;;;;6246741;28;20226;-51
2023/03/22 15:53:21;;;;;;;4.17;1.80;;;;;;;;;;6222205;28;20252;-50
2023/03/22 15:56:23;;;;;;;2.03;1.43;;;;;;;;;;6247629;28;20191;-52
2023/03/22 15:59:29;;;;;;;3.97;1.80;;;;;;;;;;6247485;28;20194;-53
2023/03/22 16:02:31;;;;;;;2.43;1.80;;;;;;;;;;6243710;28;20265;-51
2023/03/22 16:05:37;;;;;;;1.93;1.83;;;;;;;;;;6247332;28;20260;-48
2023/03/22 16:08:38;;;;;;;2.23;2.00;;;;;;;;;;6248147;28;20205;-47
2023/03/22 16:11:40;;;;;;;2.37;1.83;;;;;;;;;;6261710;28;20230;-52
2023/03/22 16:14:41;;;;;;;2.20;2.00;;;28.80;25.00;;;;;;6243430;28;20190;-52
2023/03/22 16:17:42;;;;;;;3.33;2.30;;;27.40;26.00;;;;;;6246027;28;20195;-48
2023/03/22 16:20:44;;;;;;;4.37;2.23;;;26.40;27.40;;;;;;6231770;28;20202;-53
2023/03/22 16:23:44;;;;;;;1.97;1.87;;;25.40;28.40;;;;;;6248284;28;20267;-47
2023/03/22 16:26:45;;;;;;;2.20;2.00;;;;;;;;;;6232513;28;20222;-52
2023/03/22 16:29:47;;;;;;;2.80;2.10;;;;;;;;;;6262328;28;20198;-54
2023/03/22 16:32:48;;;;;;;2.10;2.00;;;;;;;;;;6263161;28;20209;-52
2023/03/22 16:35:49;;;;;;;3.67;2.17;;;;;;;;;;6247793;28;20190;-49
2023/03/22 16:38:51;;;;;;;4.77;2.43;;;;;;;;;;6231142;28;20221;-55
2023/03/22 16:41:54;;;;;;;2.80;2.50;;;;;;;;;;6230084;28;20285;-50
2023/03/22 16:44:55;;;;;;;5.40;2.33;;;22.50;32.50;;;;;;6244074;28;20225;-50
2023/03/22 16:47:56;;;;;;;2.70;2.40;;;21.50;34.00;;;;;;6245355;28;20243;-50
2023/03/22 16:50:57;;;;;;;2.50;2.30;;;21.20;34.40;;;;;;6246267;28;20190;-47
2023/03/22 16:53:57;;;;;;;2.57;2.37;;;20.90;34.70;;;;;;6251199;28;20207;-52
2023/03/22 16:56:58;;;;;;;3.37;2.30;;;20.60;35.30;;;;;;6223213;28;20200;-53
2023/03/22 17:00:02;;;;;;;2.87;2.40;;;;;;;;;;6209991;28;20245;-51
2023/03/22 17:03:06;;;;;;;3.60;2.47;;;20.30;36.00;;;;;;6222272;28;20221;-56
2023/03/22 17:06:11;;;;;;;3.00;2.70;;;19.50;37.60;;;;;;6239526;28;20211;-54
2023/03/22 17:09:11;;;;;;;3.60;2.80;;;19.10;38.10;;;;;;6240720;28;20202;-53
2023/03/22 17:12:16;;;;;;;3.40;3.10;;;18.80;38.70;;;;;;6230428;28;20201;-56
2023/03/22 17:15:40;;;;;;;2.73;2.47;;;;;;;;;;6238545;28;20244;-52
2023/03/22 17:18:41;;;;;;;4.93;2.60;;;18.50;39.40;;;;;;6224403;28;20207;-56
2023/03/22 17:21:42;;;;;;;4.73;3.17;;;;;;;;;;6245099;28;20194;-55
2023/03/22 17:24:43;;;;;;;3.30;2.60;;;;;;;;;;6222307;28;20222;-55
2023/03/22 17:27:44;;;;;;;3.70;3.37;;;18.00;40.70;;;;;;6232687;28;20240;-55
2023/03/22 17:30:45;;;;;;;4.77;3.23;;;17.40;41.60;;;;;;6224275;28;20230;-56
2023/03/22 17:33:48;;;;;;;4.67;3.20;;;17.20;41.80;;;;;;6237967;28;20222;-54
2023/03/22 17:36:49;;;;;;;3.40;3.10;;;17.00;42.30;;;;;;6224622;28;20206;-56
2023/03/22 17:39:51;;;;;;;4.67;3.20;;;16.90;43.00;;;;;;6219281;28;20222;-50
2023/03/22 17:42:52;;;;;;;6.40;3.53;;;16.70;43.50;;;;;;6244534;28;20206;-53
2023/03/22 17:45:53;;;;;;;4.00;3.60;;;;;;;;;;6229036;28;20227;-50
2023/03/22 17:48:55;;;;;;;4.37;3.30;;;16.50;44.10;;;;;;6259808;28;20214;-50
2023/03/22 17:51:55;;;;;;;3.27;3.00;;;16.00;44.80;;;;;;6257124;28;20197;-58
2023/03/22 17:54:56;;;;;;;4.33;2.97;;;15.90;45.50;;;;;;6229486;28;20195;-56